Terminal Aerodrome Forecast
Issued by NWS

Home | Current Version | Previous Version | Text Only | Print | Product List | Glossary On
Versions: 1 2 3 4 5 6 7 8 9 10 11 12 13 14 15 16 17 18
000
FTUS42 KTBW 052330
TAFPIE
TAF
KPIE 052330Z 0600/0624 30012G18KT P6SM SKC
     FM060200 30011KT P6SM SKC
     FM060600 34009KT P6SM FEW060
     FM061500 34011KT P6SM SKC
     FM061800 31012G18KT P6SM SKC=

USA.gov is the U.S. government's official web portal to all federal, state and local government web resources and services.